Time,TemperatureF,DewpointF,PressureIn,WindDirection,WindDirectionDegrees,WindSpeedMPH,WindSpeedGustMPH,Humidity,HourlyPrecipIn,Conditions,Clouds,dailyrainin,SoftwareType,DateUTC
2013-02-15 00:00:00,24.7,-24.3,29.94,North,0,0.0,0.9,1,0.00,,,0.00,WUHU216HW,2013-02-15 05:00:00,
2013-02-15 00:05:00,24.7,-24.3,29.93,NNE,23,0.0,0.4,1,0.00,,,0.00,WUHU216HW,2013-02-15 05:05:00,
2013-02-15 00:10:00,24.5,-24.4,29.94,NNE,23,0.0,0.2,1,0.00,,,0.00,WUHU216HW,2013-02-15 05:10:00,
2013-02-15 00:15:00,24.3,-24.6,29.93,NNE,23,0.0,0.0,2,0.00,,,0.00,WUHU216HW,2013-02-15 05:15:00,
2013-02-15 00:20:00,24.1,-24.6,29.93,NNE,23,0.0,0.0,4,0.00,,,0.00,WUHU216HW,2013-02-15 05:20:00,
2013-02-15 00:25:00,23.8,-25.0,29.94,NW,315,0.0,0.0,4,0.00,,,0.00,WUHU216HW,2013-02-15 05:25:00,
2013-02-15 00:30:00,23.4,-25.3,29.94,NNW,338,0.0,0.0,5,0.00,,,0.00,WUHU216HW,2013-02-15 05:30:00,
2013-02-15 00:35:00,23.4,-25.3,29.94,NNW,338,0.0,0.0,5,0.00,,,0.00,WUHU216HW,2013-02-15 05:35:00,
2013-02-15 00:40:00,23.0,-25.6,29.94,NNW,338,0.0,0.0,6,0.00,,,0.00,WUHU216HW,2013-02-15 05:40:00,
2013-02-15 00:45:00,22.7,-25.8,29.94,NNW,338,0.0,0.0,7,0.00,,,0.00,WUHU216HW,2013-02-15 05:45:00,
2013-02-15 00:50:00,22.7,-25.8,29.94,NNW,338,0.0,0.0,6,0.00,,,0.00,WUHU216HW,2013-02-15 05:50:00,
2013-02-15 00:55:00,22.7,-25.8,29.94,NNW,338,0.0,0.0,2,0.00,,,0.00,WUHU216HW,2013-02-15 05:55:00,
2013-02-15 01:00:00,22.3,-26.1,29.94,NNW,338,0.0,0.0,4,0.00,,,0.00,WUHU216HW,2013-02-15 06:00:00,
2013-02-15 01:05:00,22.0,-26.5,29.94,NNW,338,0.0,0.0,6,0.00,,,0.00,WUHU216HW,2013-02-15 06:05:00,
2013-02-15 01:10:00,21.6,-26.7,29.93,NNW,338,0.0,0.0,6,0.00,,,0.00,WUHU216HW,2013-02-15 06:10:00,
2013-02-15 01:15:00,21.8,-26.5,29.94,NNW,338,0.0,0.0,1,0.00,,,0.00,WUHU216HW,2013-02-15 06:15:00,
2013-02-15 01:20:00,21.6,-26.7,29.94,NNW,338,0.0,0.0,1,0.00,,,0.00,WUHU216HW,2013-02-15 06:20:00,
2013-02-15 01:25:00,21.2,-27.0,29.94,WNW,293,0.0,0.0,2,0.00,,,0.00,WUHU216HW,2013-02-15 06:25:00,
2013-02-15 01:30:00,21.1,-27.1,29.94,WNW,293,0.0,0.0,3,0.00,,,0.00,WUHU216HW,2013-02-15 06:30:00,
2013-02-15 01:35:00,20.7,-27.3,29.94,WNW,293,0.0,0.0,5,0.00,,,0.00,WUHU216HW,2013-02-15 06:35:00,
2013-02-15 01:40:00,20.3,-27.6,29.94,WNW,293,0.0,0.0,6,0.00,,,0.00,WUHU216HW,2013-02-15 06:40:00,
2013-02-15 01:45:00,20.0,-27.9,29.94,North,0,0.0,0.0,7,0.00,,,0.00,WUHU216HW,2013-02-15 06:45:00,
2013-02-15 01:50:00,20.0,-27.9,29.94,NNE,23,0.0,0.0,6,0.00,,,0.00,WUHU216HW,2013-02-15 06:50:00,
2013-02-15 01:55:00,20.2,-27.7,29.94,NNE,23,0.0,0.0,2,0.00,,,0.00,WUHU216HW,2013-02-15 06:55:00,
2013-02-15 02:00:00,20.0,-27.9,29.94,NNE,23,0.0,0.0,3,0.00,,,0.00,WUHU216HW,2013-02-15 07:00:00,
2013-02-15 02:05:00,19.8,-28.0,29.94,NNE,23,0.0,0.0,4,0.00,,,0.00,WUHU216HW,2013-02-15 07:05:00,
2013-02-15 02:10:00,19.6,-28.2,29.94,NNE,23,0.0,0.0,5,0.00,,,0.00,WUHU216HW,2013-02-15 07:10:00,
2013-02-15 02:15:00,19.4,-28.3,29.94,NNE,23,0.0,0.0,4,0.00,,,0.00,WUHU216HW,2013-02-15 07:15:00,
2013-02-15 02:20:00,19.3,-28.4,29.94,NNE,23,0.0,0.0,4,0.00,,,0.00,WUHU216HW,2013-02-15 07:20:00,
2013-02-15 02:25:00,19.1,-28.5,29.94,NNE,23,0.0,0.0,5,0.00,,,0.00,WUHU216HW,2013-02-15 07:25:00,
2013-02-15 02:30:00,18.9,-28.7,29.94,NNE,23,0.0,0.0,5,0.00,,,0.00,WUHU216HW,2013-02-15 07:30:00,
2013-02-15 02:35:00,18.7,-28.8,29.94,NNE,23,0.0,0.0,6,0.00,,,0.00,WUHU216HW,2013-02-15 07:35:00,
2013-02-15 02:40:00,18.9,-28.7,29.93,NNE,23,0.0,0.0,1,0.00,,,0.00,WUHU216HW,2013-02-15 07:40:00,
2013-02-15 02:45:00,19.1,-28.5,29.93,NNE,23,0.0,0.0,1,0.00,,,0.00,WUHU216HW,2013-02-15 07:45:00,
2013-02-15 02:50:00,19.3,-28.4,29.93,NNE,23,0.0,0.0,1,0.00,,,0.00,WUHU216HW,2013-02-15 07:50:00,
2013-02-15 02:55:00,19.1,-28.5,29.93,NNE,23,0.0,0.0,1,0.00,,,0.00,WUHU216HW,2013-02-15 07:55:00,
2013-02-15 03:00:00,19.1,-28.5,29.93,NNE,23,0.0,0.0,1,0.00,,,0.00,WUHU216HW,2013-02-15 08:00:00,
2013-02-15 03:05:00,18.9,-28.7,29.93,NNE,23,0.0,0.0,1,0.00,,,0.00,WUHU216HW,2013-02-15 08:05:00,
2013-02-15 03:10:00,18.7,-28.8,29.93,NNE,23,0.0,0.0,2,0.00,,,0.00,WUHU216HW,2013-02-15 08:10:00,
2013-02-15 03:15:00,18.7,-28.8,29.93,NNE,23,0.0,0.0,1,0.00,,,0.00,WUHU216HW,2013-02-15 08:15:00,
2013-02-15 03:20:00,18.7,-28.8,29.93,NNE,23,0.0,0.0,1,0.00,,,0.00,WUHU216HW,2013-02-15 08:20:00,
2013-02-15 03:25:00,18.5,-29.0,29.93,NNE,23,0.0,0.0,1,0.00,,,0.00,WUHU216HW,2013-02-15 08:25:00,
2013-02-15 03:30:00,18.4,-29.2,29.93,NNE,23,0.0,0.0,2,0.00,,,0.00,WUHU216HW,2013-02-15 08:30:00,
2013-02-15 03:35:00,18.0,-29.4,29.93,NNE,23,0.0,0.0,2,0.00,,,0.00,WUHU216HW,2013-02-15 08:35:00,
2013-02-15 03:40:00,17.8,-29.5,29.93,NNE,23,0.0,0.0,4,0.00,,,0.00,WUHU216HW,2013-02-15 08:40:00,
2013-02-15 03:45:00,17.6,-29.7,29.93,NNE,23,0.0,0.0,5,0.00,,,0.00,WUHU216HW,2013-02-15 08:45:00,
2013-02-15 03:50:00,17.3,-30.0,29.93,SW,225,0.0,0.0,6,0.00,,,0.00,WUHU216HW,2013-02-15 08:50:00,
2013-02-15 03:55:00,16.9,-30.2,29.93,SW,225,0.0,0.0,7,0.00,,,0.00,WUHU216HW,2013-02-15 08:55:00,
2013-02-15 03:59:00,16.7,-30.4,29.93,SW,225,0.0,0.0,9,0.00,,,0.00,WUHU216HW,2013-02-15 08:59:00,
2013-02-15 04:04:00,16.6,-30.6,29.93,NNW,338,0.0,0.0,9,0.00,,,0.00,WUHU216HW,2013-02-15 09:04:00,
2013-02-15 04:09:00,16.9,-30.2,29.94,North,0,0.0,0.2,1,0.00,,,0.00,WUHU216HW,2013-02-15 09:09:00,
2013-02-15 04:14:00,17.5,-29.9,29.94,North,0,0.0,0.2,1,0.00,,,0.00,WUHU216HW,2013-02-15 09:14:00,
2013-02-15 04:19:00,17.6,-29.7,29.94,North,0,0.0,0.0,1,0.00,,,0.00,WUHU216HW,2013-02-15 09:19:00,
2013-02-15 04:24:00,17.8,-29.5,29.94,NNE,23,0.0,0.0,1,0.00,,,0.00,WUHU216HW,2013-02-15 09:24:00,
2013-02-15 04:29:00,18.2,-29.2,29.94,NNE,23,0.0,0.0,1,0.00,,,0.00,WUHU216HW,2013-02-15 09:29:00,
2013-02-15 04:34:00,18.4,-29.2,29.94,NNE,23,0.0,0.0,1,0.00,,,0.00,WUHU216HW,2013-02-15 09:34:00,
2013-02-15 04:39:00,18.4,-29.2,29.94,NNE,23,0.0,0.0,1,0.00,,,0.00,WUHU216HW,2013-02-15 09:39:00,
2013-02-15 04:44:00,18.4,-29.2,29.93,NNE,23,0.0,0.0,1,0.00,,,0.00,WUHU216HW,2013-02-15 09:44:00,
2013-02-15 04:49:00,18.4,-29.2,29.93,North,0,0.0,0.0,1,0.00,,,0.00,WUHU216HW,2013-02-15 09:49:00,
2013-02-15 04:54:00,18.5,-29.0,29.93,North,0,0.0,0.0,1,0.00,,,0.00,WUHU216HW,2013-02-15 09:54:00,
2013-02-15 04:59:00,18.9,-28.7,29.93,NNE,23,0.0,0.2,1,0.00,,,0.00,WUHU216HW,2013-02-15 09:59:00,
2013-02-15 05:04:00,19.3,-28.4,29.93,NNE,23,0.0,0.2,1,0.00,,,0.00,WUHU216HW,2013-02-15 10:04:00,
2013-02-15 05:09:00,19.6,-28.2,29.93,NNE,23,0.0,0.0,1,0.00,,,0.00,WUHU216HW,2013-02-15 10:09:00,
2013-02-15 05:14:00,19.8,-28.0,29.93,NNE,23,0.0,0.0,1,0.00,,,0.00,WUHU216HW,2013-02-15 10:14:00,
2013-02-15 05:19:00,20.0,-27.9,29.93,ESE,113,0.0,0.0,1,0.00,,,0.00,WUHU216HW,2013-02-15 10:19:00,
2013-02-15 05:24:00,20.2,-27.7,29.93,ESE,113,0.0,0.0,1,0.00,,,0.00,WUHU216HW,2013-02-15 10:24:00,
2013-02-15 05:29:00,20.3,-27.6,29.93,ESE,113,0.0,0.0,1,0.00,,,0.00,WUHU216HW,2013-02-15 10:29:00,
2013-02-15 05:34:00,20.3,-27.6,29.93,SSE,158,0.0,0.0,1,0.00,,,0.00,WUHU216HW,2013-02-15 10:34:00,
2013-02-15 05:39:00,20.5,-27.5,29.93,SSE,158,0.0,0.0,1,0.00,,,0.00,WUHU216HW,2013-02-15 10:39:00,
2013-02-15 05:44:00,20.5,-27.5,29.93,SSE,158,0.0,0.0,1,0.00,,,0.00,WUHU216HW,2013-02-15 10:44:00,
2013-02-15 05:49:00,20.5,-27.5,29.93,SSE,158,0.0,0.0,1,0.00,,,0.00,WUHU216HW,2013-02-15 10:49:00,
2013-02-15 05:54:00,20.2,-27.7,29.93,SE,135,0.0,0.0,1,0.00,,,0.00,WUHU216HW,2013-02-15 10:54:00,
2013-02-15 05:59:00,20.2,-27.7,29.92,SE,135,0.0,0.0,1,0.00,,,0.00,WUHU216HW,2013-02-15 10:59:00,
2013-02-15 06:04:00,20.0,-27.9,29.92,SSW,203,0.0,0.0,1,0.00,,,0.00,WUHU216HW,2013-02-15 11:04:00,
2013-02-15 06:09:00,19.8,-28.0,29.93,SSW,203,0.0,0.0,1,0.00,,,0.00,WUHU216HW,2013-02-15 11:09:00,
2013-02-15 06:14:00,19.8,-28.0,29.93,SSW,203,0.0,0.0,1,0.00,,,0.00,WUHU216HW,2013-02-15 11:14:00,
2013-02-15 06:19:00,19.8,-28.0,29.93,NNE,23,0.4,0.4,1,0.00,,,0.00,WUHU216HW,2013-02-15 11:19:00,
2013-02-15 06:24:00,20.2,-27.7,29.93,NNE,23,0.0,0.9,1,0.00,,,0.00,WUHU216HW,2013-02-15 11:24:00,
2013-02-15 06:29:00,20.3,-27.6,29.93,NNW,338,0.0,0.9,1,0.00,,,0.00,WUHU216HW,2013-02-15 11:29:00,
2013-02-15 06:34:00,20.5,-27.5,29.93,North,0,0.0,0.0,1,0.00,,,0.00,WUHU216HW,2013-02-15 11:34:00,
2013-02-15 06:39:00,20.7,-27.3,29.93,North,0,0.0,0.0,1,0.00,,,0.00,WUHU216HW,2013-02-15 11:39:00,
2013-02-15 06:44:00,20.7,-27.3,29.93,WNW,293,0.0,0.0,1,0.00,,,0.00,WUHU216HW,2013-02-15 11:44:00,
2013-02-15 06:49:00,20.9,-27.3,29.93,NW,315,0.0,0.0,1,0.00,,,0.00,WUHU216HW,2013-02-15 11:49:00,
2013-02-15 06:54:00,20.9,-27.3,29.93,North,0,0.0,0.2,1,0.00,,,0.00,WUHU216HW,2013-02-15 11:54:00,
2013-02-15 06:59:00,21.2,-27.0,29.93,North,0,0.0,0.2,1,0.00,,,0.00,WUHU216HW,2013-02-15 11:59:00,
2013-02-15 07:04:00,21.2,-27.0,29.93,North,0,0.0,0.2,1,0.00,,,0.00,WUHU216HW,2013-02-15 12:04:00,
2013-02-15 07:09:00,21.6,-26.7,29.93,NNW,338,0.0,0.2,1,0.00,,,0.00,WUHU216HW,2013-02-15 12:09:00,
2013-02-15 07:14:00,21.6,-26.7,29.93,NW,315,0.0,0.0,1,0.00,,,0.00,WUHU216HW,2013-02-15 12:14:00,
2013-02-15 07:19:00,21.8,-26.5,29.93,WNW,293,0.0,0.0,1,0.00,,,0.00,WUHU216HW,2013-02-15 12:19:00,
2013-02-15 07:24:00,21.8,-26.5,29.93,West,270,0.0,0.0,1,0.00,,,0.00,WUHU216HW,2013-02-15 12:24:00,
2013-02-15 07:29:00,22.0,-26.5,29.93,SW,225,0.0,0.0,1,0.00,,,0.00,WUHU216HW,2013-02-15 12:29:00,
2013-02-15 07:34:00,22.0,-26.5,29.93,SW,225,0.0,0.0,1,0.00,,,0.00,WUHU216HW,2013-02-15 12:34:00,
2013-02-15 07:39:00,22.3,-26.1,29.93,SW,225,0.0,0.0,1,0.00,,,0.00,WUHU216HW,2013-02-15 12:39:00,
2013-02-15 07:44:00,23.2,-25.4,29.93,SW,225,0.0,0.0,1,0.00,,,0.00,WUHU216HW,2013-02-15 12:44:00,
2013-02-15 07:49:00,24.1,-24.6,29.93,SW,225,0.0,0.0,1,0.00,,,0.00,WUHU216HW,2013-02-15 12:49:00,
2013-02-15 07:54:00,25.2,-23.8,29.93,NNE,23,0.0,0.0,1,0.00,,,0.00,WUHU216HW,2013-02-15 12:54:00,
2013-02-15 07:59:00,26.1,-23.1,29.92,WSW,248,0.0,0.7,1,0.00,,,0.00,WUHU216HW,2013-02-15 12:59:00,
2013-02-15 08:04:00,26.6,-22.7,29.92,West,270,0.2,0.7,1,0.00,,,0.00,WUHU216HW,2013-02-15 13:04:00,
2013-02-15 08:09:00,27.4,-22.1,29.92,West,270,0.9,0.9,1,0.00,,,0.00,WUHU216HW,2013-02-15 13:09:00,
2013-02-15 08:14:00,28.1,-21.5,29.93,NNE,23,0.0,0.9,1,0.00,,,0.00,WUHU216HW,2013-02-15 13:14:00,
2013-02-15 08:19:00,28.8,-21.0,29.93,West,270,0.0,0.9,1,0.00,,,0.00,WUHU216HW,2013-02-15 13:19:00,
2013-02-15 08:24:00,29.5,-20.3,29.93,WSW,248,0.2,0.9,1,0.00,,,0.00,WUHU216HW,2013-02-15 13:24:00,
2013-02-15 08:29:00,30.2,-19.8,29.93,WSW,248,1.6,3.4,1,0.00,,,0.00,WUHU216HW,2013-02-15 13:29:00,
2013-02-15 08:34:00,31.1,-19.1,29.94,NW,315,0.0,3.4,1,0.00,,,0.00,WUHU216HW,2013-02-15 13:34:00,
2013-02-15 08:39:00,31.9,-18.5,29.93,WSW,248,0.7,2.7,1,0.00,,,0.00,WUHU216HW,2013-02-15 13:39:00,
2013-02-15 08:44:00,32.4,-18.1,29.94,WNW,293,0.0,2.7,1,0.00,,,0.00,WUHU216HW,2013-02-15 13:44:00,
2013-02-15 08:49:00,32.9,-17.7,29.94,NW,315,0.2,2.2,1,0.00,,,0.00,WUHU216HW,2013-02-15 13:49:00,
2013-02-15 08:54:00,33.5,-17.4,29.94,NW,315,0.4,1.3,1,0.00,,,0.00,WUHU216HW,2013-02-15 13:54:00,
2013-02-15 08:59:00,34.4,-16.6,29.94,NW,315,0.0,0.9,1,0.00,,,0.00,WUHU216HW,2013-02-15 13:59:00,
2013-02-15 09:04:00,34.9,-16.2,29.94,NW,315,0.2,0.7,1,0.00,,,0.00,WUHU216HW,2013-02-15 14:04:00,
2013-02-15 09:09:00,35.3,-15.9,29.94,NNW,338,0.7,1.8,1,0.00,,,0.00,WUHU216HW,2013-02-15 14:09:00,
2013-02-15 09:14:00,35.3,-15.9,29.94,West,270,1.3,2.0,1,0.00,,,0.00,WUHU216HW,2013-02-15 14:14:00,
2013-02-15 09:19:00,35.5,-15.8,29.94,North,0,0.0,2.0,1,0.00,,,0.00,WUHU216HW,2013-02-15 14:19:00,
2013-02-15 09:24:00,35.3,-15.9,29.95,SW,225,0.4,1.8,1,0.00,,,0.00,WUHU216HW,2013-02-15 14:24:00,
2013-02-15 09:29:00,35.6,-15.7,29.94,NW,315,0.2,2.7,1,0.00,,,0.00,WUHU216HW,2013-02-15 14:29:00,
2013-02-15 09:34:00,36.0,-15.4,29.94,NW,315,1.1,2.7,1,0.00,,,0.00,WUHU216HW,2013-02-15 14:34:00,
2013-02-15 09:39:00,37.1,-14.5,29.94,NNW,338,0.0,2.5,1,0.00,,,0.00,WUHU216HW,2013-02-15 14:39:00,
2013-02-15 09:44:00,38.5,-13.3,29.94,NNW,338,0.0,2.5,1,0.00,,,0.00,WUHU216HW,2013-02-15 14:44:00,
2013-02-15 09:49:00,39.8,-12.3,29.93,WSW,248,0.0,1.1,1,0.00,,,0.00,WUHU216HW,2013-02-15 14:49:00,
2013-02-15 09:54:00,40.3,-10.4,29.93,WSW,248,1.6,3.1,11,0.00,,,0.00,WUHU216HW,2013-02-15 14:54:00,
2013-02-15 09:59:00,40.7,-11.6,29.93,SW,225,0.2,3.1,7,0.00,,,0.00,WUHU216HW,2013-02-15 14:59:00,
2013-02-15 10:04:00,41.0,-11.3,29.93,SW,225,0.0,3.6,7,0.00,,,0.00,WUHU216HW,2013-02-15 15:04:00,
2013-02-15 10:09:00,41.4,-9.6,29.94,South,180,0.2,3.6,11,0.00,,,0.00,WUHU216HW,2013-02-15 15:09:00,
2013-02-15 10:14:00,41.4,0.5,29.94,NW,315,0.0,2.9,18,0.00,,,0.00,WUHU216HW,2013-02-15 15:14:00,
2013-02-15 10:19:00,41.8,8.1,29.94,SW,225,2.0,2.0,25,0.00,,,0.00,WUHU216HW,2013-02-15 15:19:00,
2013-02-15 10:24:00,42.5,6.0,29.94,WSW,248,0.7,2.9,22,0.00,,,0.00,WUHU216HW,2013-02-15 15:24:00,
2013-02-15 10:29:00,43.2,9.4,29.93,WSW,248,2.7,3.8,25,0.00,,,0.00,WUHU216HW,2013-02-15 15:29:00,
2013-02-15 10:34:00,43.9,14.5,29.93,SW,225,0.0,3.8,30,0.00,,,0.00,WUHU216HW,2013-02-15 15:34:00,
2013-02-15 10:39:00,44.3,16.1,29.93,SSW,203,1.1,3.6,32,0.00,,,0.00,WUHU216HW,2013-02-15 15:39:00,
2013-02-15 10:44:00,44.8,18.6,29.93,WNW,293,0.4,1.8,35,0.00,,,0.00,WUHU216HW,2013-02-15 15:44:00,
2013-02-15 10:49:00,45.2,23.3,29.92,West,270,0.4,1.8,42,0.00,,,0.00,WUHU216HW,2013-02-15 15:49:00,
2013-02-15 10:54:00,45.7,22.8,29.92,SSW,203,0.0,2.5,40,0.00,,,0.00,WUHU216HW,2013-02-15 15:54:00,
2013-02-15 10:59:00,45.7,24.9,29.92,WNW,293,2.5,2.5,44,0.00,,,0.00,WUHU216HW,2013-02-15 15:59:00,
2013-02-15 11:04:00,45.9,24.6,29.92,WSW,248,1.1,2.5,43,0.00,,,0.00,WUHU216HW,2013-02-15 16:04:00,
2013-02-15 11:09:00,46.3,25.4,29.92,SSW,203,1.1,2.5,44,0.00,,,0.00,WUHU216HW,2013-02-15 16:09:00,
2013-02-15 11:14:00,46.8,27.0,29.92,SW,225,0.9,4.0,46,0.00,,,0.00,WUHU216HW,2013-02-15 16:14:00,
2013-02-15 11:19:00,47.0,27.1,29.92,SW,225,0.0,4.0,46,0.00,,,0.00,WUHU216HW,2013-02-15 16:19:00,
2013-02-15 11:24:00,47.7,28.4,29.91,SW,225,2.5,3.8,47,0.00,,,0.00,WUHU216HW,2013-02-15 16:24:00,
2013-02-15 11:29:00,48.4,29.0,29.91,SW,225,1.1,3.8,47,0.00,,,0.00,WUHU216HW,2013-02-15 16:29:00,
2013-02-15 11:34:00,48.6,28.6,29.91,WSW,248,6.3,6.3,46,0.00,,,0.00,WUHU216HW,2013-02-15 16:34:00,
2013-02-15 11:39:00,49.1,29.2,29.90,SSW,203,1.8,6.3,46,0.00,,,0.00,WUHU216HW,2013-02-15 16:39:00,
2013-02-15 11:44:00,50.2,31.9,29.90,SW,225,2.0,5.4,49,0.00,,,0.00,WUHU216HW,2013-02-15 16:44:00,
2013-02-15 11:49:00,50.0,31.2,29.90,WSW,248,0.4,4.7,48,0.00,,,0.00,WUHU216HW,2013-02-15 16:49:00,
2013-02-15 11:54:00,50.0,31.2,29.90,WNW,293,0.9,5.4,48,0.00,,,0.00,WUHU216HW,2013-02-15 16:54:00,
2013-02-15 11:59:00,50.2,31.2,29.90,NW,315,0.4,6.9,48,0.00,,,0.00,WUHU216HW,2013-02-15 16:59:00,
2013-02-15 12:04:00,50.8,31.8,29.89,NNW,338,0.2,6.9,48,0.00,,,0.00,WUHU216HW,2013-02-15 17:04:00,
2013-02-15 12:09:00,50.9,32.0,29.88,SW,225,0.2,1.6,48,0.00,,,0.00,WUHU216HW,2013-02-15 17:09:00,
2013-02-15 12:13:00,51.1,32.0,29.88,West,270,2.5,3.6,48,0.00,,,0.00,WUHU216HW,2013-02-15 17:13:00,
2013-02-15 12:18:00,51.3,32.2,29.88,West,270,0.4,7.6,48,0.00,,,0.00,WUHU216HW,2013-02-15 17:18:00,
2013-02-15 12:23:00,51.5,31.9,29.87,WSW,248,2.5,7.6,47,0.00,,,0.00,WUHU216HW,2013-02-15 17:23:00,
2013-02-15 12:28:00,51.7,32.6,29.87,NW,315,0.0,2.5,48,0.00,,,0.00,WUHU216HW,2013-02-15 17:28:00,
2013-02-15 12:33:00,52.0,32.9,29.87,NW,315,0.4,2.5,48,0.00,,,0.00,WUHU216HW,2013-02-15 17:33:00,
2013-02-15 12:38:00,52.2,32.5,29.87,WSW,248,2.2,3.4,47,0.00,,,0.00,WUHU216HW,2013-02-15 17:38:00,
2013-02-15 12:43:00,52.4,32.1,29.87,NW,315,3.6,4.0,46,0.00,,,0.00,WUHU216HW,2013-02-15 17:43:00,
2013-02-15 12:48:00,52.6,32.2,29.86,NNE,23,7.8,7.8,46,0.00,,,0.00,WUHU216HW,2013-02-15 17:48:00,
2013-02-15 12:53:00,52.6,32.2,29.86,SW,225,2.7,7.8,46,0.00,,,0.00,WUHU216HW,2013-02-15 17:53:00,
2013-02-15 12:58:00,52.6,33.4,29.86,WNW,293,0.2,7.8,48,0.00,,,0.00,WUHU216HW,2013-02-15 17:58:00,
2013-02-15 13:03:00,52.9,32.6,29.86,SW,225,2.0,4.9,46,0.00,,,0.00,WUHU216HW,2013-02-15 18:03:00,
2013-02-15 13:08:00,53.3,33.5,29.86,NNW,338,0.0,4.9,47,0.00,,,0.00,WUHU216HW,2013-02-15 18:08:00,
2013-02-15 13:13:00,52.7,32.4,29.85,WNW,293,3.4,3.4,46,0.00,,,0.00,WUHU216HW,2013-02-15 18:13:00,
2013-02-15 13:18:00,52.9,32.6,29.85,WSW,248,2.5,3.4,46,0.00,,,0.00,WUHU216HW,2013-02-15 18:18:00,
2013-02-15 13:23:00,52.9,33.1,29.85,West,270,1.6,3.4,47,0.00,,,0.00,WUHU216HW,2013-02-15 18:23:00,
2013-02-15 13:28:00,52.9,32.6,29.85,SSW,203,2.7,2.7,46,0.00,,,0.00,WUHU216HW,2013-02-15 18:28:00,
2013-02-15 13:33:00,52.9,32.6,29.85,North,0,0.9,2.7,46,0.00,,,0.00,WUHU216HW,2013-02-15 18:33:00,
2013-02-15 13:38:00,52.9,33.1,29.86,WSW,248,0.7,2.7,47,0.00,,,0.00,WUHU216HW,2013-02-15 18:38:00,
2013-02-15 13:43:00,53.1,32.8,29.85,NNW,338,0.2,2.5,46,0.00,,,0.00,WUHU216HW,2013-02-15 18:43:00,
2013-02-15 13:48:00,53.3,33.5,29.85,WSW,248,0.9,1.8,47,0.00,,,0.00,WUHU216HW,2013-02-15 18:48:00,
2013-02-15 13:53:00,53.3,33.0,29.85,SW,225,0.7,1.8,46,0.00,,,0.00,WUHU216HW,2013-02-15 18:53:00,
2013-02-15 13:58:00,53.3,33.0,29.85,NNW,338,1.6,1.8,46,0.00,,,0.00,WUHU216HW,2013-02-15 18:58:00,
2013-02-15 14:03:00,52.6,32.2,29.85,North,0,0.2,1.6,46,0.00,,,0.00,WUHU216HW,2013-02-15 19:03:00,
2013-02-15 14:08:00,52.4,31.0,29.85,NW,315,1.8,1.8,44,0.00,,,0.00,WUHU216HW,2013-02-15 19:08:00,
2013-02-15 14:13:00,52.6,31.7,29.85,SW,225,2.0,4.7,45,0.00,,,0.00,WUHU216HW,2013-02-15 19:13:00,
2013-02-15 14:18:00,52.6,31.7,29.85,NNE,23,3.1,4.7,45,0.00,,,0.00,WUHU216HW,2013-02-15 19:18:00,
2013-02-15 14:23:00,52.6,31.7,29.86,WNW,293,0.7,8.1,45,0.00,,,0.00,WUHU216HW,2013-02-15 19:23:00,
2013-02-15 14:28:00,52.2,30.8,29.85,North,0,0.4,8.1,44,0.00,,,0.00,WUHU216HW,2013-02-15 19:28:00,
2013-02-15 14:33:00,52.4,31.5,29.85,SW,225,5.1,5.1,45,0.00,,,0.00,WUHU216HW,2013-02-15 19:33:00,
2013-02-15 14:38:00,52.4,31.5,29.85,SW,225,2.7,5.6,45,0.00,,,0.00,WUHU216HW,2013-02-15 19:38:00,
2013-02-15 14:43:00,52.2,32.0,29.85,SW,225,0.7,5.6,46,0.00,,,0.00,WUHU216HW,2013-02-15 19:43:00,
2013-02-15 14:48:00,52.0,32.3,29.85,SW,225,2.2,3.1,47,0.00,,,0.00,WUHU216HW,2013-02-15 19:48:00,
2013-02-15 14:53:00,52.0,32.3,29.85,NW,315,0.2,3.1,47,0.00,,,0.00,WUHU216HW,2013-02-15 19:53:00,
2013-02-15 14:58:00,51.5,32.4,29.85,SW,225,0.2,2.2,48,0.00,,,0.00,WUHU216HW,2013-02-15 19:58:00,
2013-02-15 15:03:00,51.5,32.4,29.85,North,0,0.2,2.5,48,0.00,,,0.00,WUHU216HW,2013-02-15 20:03:00,
2013-02-15 15:08:00,50.9,32.0,29.85,WSW,248,1.3,3.4,48,0.00,,,0.00,WUHU216HW,2013-02-15 20:08:00,
2013-02-15 15:13:00,50.8,32.3,29.85,SW,225,2.2,3.4,49,0.00,,,0.00,WUHU216HW,2013-02-15 20:13:00,
2013-02-15 15:18:00,50.8,32.3,29.85,SW,225,3.4,5.8,49,0.00,,,0.00,WUHU216HW,2013-02-15 20:18:00,
2013-02-15 15:23:00,50.8,31.8,29.85,SSW,203,3.1,5.8,48,0.00,,,0.00,WUHU216HW,2013-02-15 20:23:00,
2013-02-15 15:28:00,50.2,31.9,29.85,SW,225,0.0,3.4,49,0.00,,,0.00,WUHU216HW,2013-02-15 20:28:00,
2013-02-15 15:33:00,49.9,31.5,29.85,West,270,2.7,5.1,49,0.00,,,0.00,WUHU216HW,2013-02-15 20:33:00,
2013-02-15 15:38:00,49.7,31.9,29.85,SW,225,0.0,5.1,50,0.00,,,0.00,WUHU216HW,2013-02-15 20:38:00,
2013-02-15 15:43:00,49.3,31.5,29.85,WSW,248,0.2,2.7,50,0.00,,,0.00,WUHU216HW,2013-02-15 20:43:00,
2013-02-15 15:48:00,49.3,31.5,29.85,South,180,0.2,2.5,50,0.00,,,0.00,WUHU216HW,2013-02-15 20:48:00,
2013-02-15 15:53:00,49.0,31.1,29.85,SW,225,0.0,2.5,50,0.00,,,0.00,WUHU216HW,2013-02-15 20:53:00,
2013-02-15 15:58:00,49.0,31.1,29.85,WSW,248,0.0,0.4,50,0.00,,,0.00,WUHU216HW,2013-02-15 20:58:00,
2013-02-15 16:03:00,49.0,31.1,29.85,WSW,248,0.0,0.4,50,0.00,,,0.00,WUHU216HW,2013-02-15 21:03:00,
2013-02-15 16:08:00,48.6,30.8,29.85,WSW,248,0.0,1.3,50,0.00,,,0.00,WUHU216HW,2013-02-15 21:08:00,
2013-02-15 16:13:00,48.4,31.1,29.85,SW,225,1.6,2.0,51,0.00,,,0.00,WUHU216HW,2013-02-15 21:13:00,
2013-02-15 16:18:00,47.9,30.6,29.85,WNW,293,0.4,2.0,51,0.00,,,0.00,WUHU216HW,2013-02-15 21:18:00,
2013-02-15 16:23:00,47.5,30.3,29.85,West,270,0.0,2.0,51,0.00,,,0.00,WUHU216HW,2013-02-15 21:23:00,
2013-02-15 16:28:00,47.2,29.9,29.85,WSW,248,0.0,2.0,51,0.00,,,0.00,WUHU216HW,2013-02-15 21:28:00,
2013-02-15 16:33:00,46.6,29.4,29.85,WSW,248,0.9,1.1,51,0.00,,,0.00,WUHU216HW,2013-02-15 21:33:00,
2013-02-15 16:38:00,46.3,29.5,29.85,WSW,248,0.0,1.1,52,0.00,,,0.00,WUHU216HW,2013-02-15 21:38:00,
2013-02-15 16:43:00,45.7,29.1,29.85,WSW,248,0.0,0.9,52,0.00,,,0.00,WUHU216HW,2013-02-15 21:43:00,
2013-02-15 16:48:00,45.4,28.7,29.85,SW,225,0.4,0.4,52,0.00,,,0.00,WUHU216HW,2013-02-15 21:48:00,
2013-02-15 16:53:00,44.6,28.1,29.85,West,270,0.0,0.4,52,0.00,,,0.00,WUHU216HW,2013-02-15 21:53:00,
2013-02-15 16:58:00,43.9,27.5,29.85,West,270,0.0,0.4,52,0.00,,,0.00,WUHU216HW,2013-02-15 21:58:00,
2013-02-15 17:03:00,43.4,26.9,29.85,West,270,0.0,0.0,52,0.00,,,0.00,WUHU216HW,2013-02-15 22:03:00,
2013-02-15 17:08:00,42.8,26.5,29.85,West,270,0.0,0.0,52,0.00,,,0.00,WUHU216HW,2013-02-15 22:08:00,
2013-02-15 17:13:00,42.3,25.5,29.85,West,270,0.0,0.0,51,0.00,,,0.00,WUHU216HW,2013-02-15 22:13:00,
2013-02-15 17:18:00,41.8,25.4,29.85,West,270,0.0,0.0,52,0.00,,,0.00,WUHU216HW,2013-02-15 22:18:00,
2013-02-15 17:23:00,41.2,24.9,29.85,West,270,0.0,0.0,52,0.00,,,0.00,WUHU216HW,2013-02-15 22:23:00,
2013-02-15 17:28:00,40.7,23.9,29.85,West,270,0.0,0.0,51,0.00,,,0.00,WUHU216HW,2013-02-15 22:28:00,
2013-02-15 17:33:00,40.0,23.2,29.85,West,270,0.0,0.0,51,0.00,,,0.00,WUHU216HW,2013-02-15 22:33:00,
2013-02-15 17:38:00,39.4,22.8,29.85,West,270,0.0,0.0,51,0.00,,,0.00,WUHU216HW,2013-02-15 22:38:00,
2013-02-15 17:43:00,38.7,22.1,29.85,WSW,248,0.0,0.0,51,0.00,,,0.00,WUHU216HW,2013-02-15 22:43:00,
2013-02-15 17:48:00,38.3,21.8,29.85,WSW,248,0.4,0.4,51,0.00,,,0.00,WUHU216HW,2013-02-15 22:48:00,
2013-02-15 17:53:00,37.4,20.5,29.85,WSW,248,0.0,0.4,50,0.00,,,0.00,WUHU216HW,2013-02-15 22:53:00,
2013-02-15 17:58:00,36.7,19.9,29.86,WSW,248,0.0,0.4,50,0.00,,,0.00,WUHU216HW,2013-02-15 22:58:00,
2013-02-15 18:03:00,36.4,18.6,29.86,WSW,248,0.0,0.0,48,0.00,,,0.00,WUHU216HW,2013-02-15 23:03:00,
2013-02-15 18:08:00,35.6,17.4,29.86,WSW,248,0.0,0.0,47,0.00,,,0.00,WUHU216HW,2013-02-15 23:08:00,
2013-02-15 18:13:00,35.3,16.5,29.87,WSW,248,0.0,0.0,46,0.00,,,0.00,WUHU216HW,2013-02-15 23:13:00,
2013-02-15 18:18:00,34.9,15.6,29.87,WSW,248,0.0,0.0,45,0.00,,,0.00,WUHU216HW,2013-02-15 23:18:00,
2013-02-15 18:23:00,34.6,14.8,29.87,WSW,248,0.0,0.0,44,0.00,,,0.00,WUHU216HW,2013-02-15 23:23:00,
2013-02-15 18:28:00,34.2,14.0,29.87,WSW,248,0.0,0.0,43,0.00,,,0.00,WUHU216HW,2013-02-15 23:28:00,
2013-02-15 18:33:00,33.8,13.1,29.87,WSW,248,0.0,0.0,42,0.00,,,0.00,WUHU216HW,2013-02-15 23:33:00,
2013-02-15 18:38:00,33.5,12.8,29.87,WSW,248,0.0,0.0,42,0.00,,,0.00,WUHU216HW,2013-02-15 23:38:00,
2013-02-15 18:43:00,33.1,11.9,29.87,NW,315,0.0,0.0,41,0.00,,,0.00,WUHU216HW,2013-02-15 23:43:00,
2013-02-15 18:48:00,32.9,10.6,29.87,NW,315,0.0,0.0,39,0.00,,,0.00,WUHU216HW,2013-02-15 23:48:00,
2013-02-15 18:53:00,32.8,9.8,29.87,NW,315,0.0,0.0,38,0.00,,,0.00,WUHU216HW,2013-02-15 23:53:00,
2013-02-15 18:58:00,32.6,9.6,29.87,NW,315,0.0,0.0,38,0.00,,,0.00,WUHU216HW,2013-02-15 23:58:00,
2013-02-15 19:03:00,32.2,8.7,29.87,North,0,0.0,0.0,37,0.00,,,0.00,WUHU216HW,2013-02-16 00:03:00,
2013-02-15 19:08:00,33.3,-17.4,29.88,NNE,23,2.7,4.0,7,0.00,,,0.00,WUHU216HW,2013-02-16 00:08:00,
2013-02-15 19:13:00,33.7,-17.2,29.89,NNE,23,2.7,4.0,1,0.00,,,0.00,WUHU216HW,2013-02-16 00:13:00,
2013-02-15 19:18:00,34.0,-16.9,29.89,North,0,0.0,2.7,1,0.00,,,0.00,WUHU216HW,2013-02-16 00:18:00,
2013-02-15 19:23:00,34.2,-16.8,29.89,NNE,23,0.0,2.7,10,0.00,,,0.00,WUHU216HW,2013-02-16 00:23:00,
2013-02-15 19:28:00,34.0,-8.5,29.89,NE,45,0.0,2.2,16,0.00,,,0.00,WUHU216HW,2013-02-16 00:28:00,
2013-02-15 19:33:00,33.8,-5.8,29.89,NNE,23,0.0,1.3,18,0.00,,,0.00,WUHU216HW,2013-02-16 00:33:00,
2013-02-15 19:38:00,33.7,-3.2,29.89,North,0,0.0,1.3,20,0.00,,,0.00,WUHU216HW,2013-02-16 00:38:00,
2013-02-15 19:43:00,33.5,-2.4,29.89,North,0,0.0,0.0,21,0.00,,,0.00,WUHU216HW,2013-02-16 00:43:00,
2013-02-15 19:48:00,33.1,-1.9,29.89,North,0,0.0,0.0,22,0.00,,,0.00,WUHU216HW,2013-02-16 00:48:00,
2013-02-15 19:53:00,32.8,-1.3,29.89,North,0,0.0,0.0,23,0.00,,,0.00,WUHU216HW,2013-02-16 00:53:00,
2013-02-15 19:58:00,32.4,-1.6,29.89,North,0,0.0,0.0,23,0.00,,,0.00,WUHU216HW,2013-02-16 00:58:00,
2013-02-15 20:03:00,32.0,-1.9,29.89,North,0,0.0,0.0,23,0.00,,,0.00,WUHU216HW,2013-02-16 01:03:00,
2013-02-15 20:08:00,31.9,-3.0,29.89,North,0,0.0,0.0,22,0.00,,,0.00,WUHU216HW,2013-02-16 01:08:00,
2013-02-15 20:13:00,31.3,-3.4,29.90,North,0,0.0,0.0,22,0.00,,,0.00,WUHU216HW,2013-02-16 01:13:00,
2013-02-15 20:18:00,31.1,-3.6,29.89,North,0,0.0,0.0,22,0.00,,,0.00,WUHU216HW,2013-02-16 01:18:00,
2013-02-15 20:23:00,30.8,-4.8,29.90,North,0,0.0,0.0,21,0.00,,,0.00,WUHU216HW,2013-02-16 01:23:00,
2013-02-15 20:28:00,30.4,-5.1,29.89,North,0,0.0,0.0,21,0.00,,,0.00,WUHU216HW,2013-02-16 01:28:00,
2013-02-15 20:33:00,30.1,-5.4,29.90,North,0,0.0,0.0,21,0.00,,,0.00,WUHU216HW,2013-02-16 01:33:00,
2013-02-15 20:38:00,30.2,-19.8,29.89,North,0,0.0,0.0,10,0.00,,,0.00,WUHU216HW,2013-02-16 01:38:00,
2013-02-15 20:43:00,30.6,-19.5,29.90,North,0,0.0,0.0,9,0.00,,,0.00,WUHU216HW,2013-02-16 01:43:00,
2013-02-15 20:48:00,30.4,-18.3,29.90,North,0,0.0,0.0,11,0.00,,,0.00,WUHU216HW,2013-02-16 01:48:00,
2013-02-15 20:53:00,30.1,-14.5,29.90,North,0,0.0,0.0,14,0.00,,,0.00,WUHU216HW,2013-02-16 01:53:00,
2013-02-15 20:58:00,29.7,-14.8,29.90,North,0,0.0,0.0,14,0.00,,,0.00,WUHU216HW,2013-02-16 01:58:00,
2013-02-15 21:03:00,29.3,-16.4,29.90,North,0,0.0,0.0,13,0.00,,,0.00,WUHU216HW,2013-02-16 02:03:00,
2013-02-15 21:08:00,29.3,-17.8,29.91,North,0,0.0,0.0,12,0.00,,,0.00,WUHU216HW,2013-02-16 02:08:00,
2013-02-15 21:13:00,29.0,-20.8,29.91,North,0,0.0,0.0,10,0.00,,,0.00,WUHU216HW,2013-02-16 02:13:00,
2013-02-15 21:18:00,29.0,-20.8,29.91,North,0,0.0,0.0,7,0.00,,,0.00,WUHU216HW,2013-02-16 02:18:00,
2013-02-15 21:23:00,28.8,-21.0,29.91,North,0,0.0,0.0,6,0.00,,,0.00,WUHU216HW,2013-02-16 02:23:00,
2013-02-15 21:28:00,28.8,-21.0,29.91,North,0,0.0,0.0,7,0.00,,,0.00,WUHU216HW,2013-02-16 02:28:00,
2013-02-15 21:33:00,28.4,-21.2,29.90,North,0,0.0,0.0,6,0.00,,,0.00,WUHU216HW,2013-02-16 02:33:00,
2013-02-15 21:38:00,28.3,-21.4,29.90,North,0,0.0,0.0,4,0.00,,,0.00,WUHU216HW,2013-02-16 02:38:00,
2013-02-15 21:43:00,28.3,-21.4,29.91,North,0,0.0,0.9,1,0.00,,,0.00,WUHU216HW,2013-02-16 02:43:00,
2013-02-15 21:48:00,28.1,-21.5,29.91,NW,315,0.0,0.9,2,0.00,,,0.00,WUHU216HW,2013-02-16 02:48:00,
2013-02-15 21:53:00,27.7,-21.8,29.91,NW,315,0.0,0.0,4,0.00,,,0.00,WUHU216HW,2013-02-16 02:53:00,
2013-02-15 21:58:00,27.5,-22.0,29.91,North,0,0.0,0.0,2,0.00,,,0.00,WUHU216HW,2013-02-16 02:58:00,
2013-02-15 22:03:00,27.5,-22.0,29.91,North,0,0.0,0.0,1,0.00,,,0.00,WUHU216HW,2013-02-16 03:03:00,
2013-02-15 22:08:00,27.5,-22.0,29.91,North,0,0.0,0.0,1,0.00,,,0.00,WUHU216HW,2013-02-16 03:08:00,
2013-02-15 22:13:00,27.5,-22.0,29.90,North,0,0.0,0.0,1,0.00,,,0.00,WUHU216HW,2013-02-16 03:13:00,
2013-02-15 22:18:00,27.4,-22.1,29.90,North,0,0.0,0.0,1,0.00,,,0.00,WUHU216HW,2013-02-16 03:18:00,
2013-02-15 22:23:00,27.2,-22.2,29.90,North,0,0.0,0.0,1,0.00,,,0.00,WUHU216HW,2013-02-16 03:23:00,
2013-02-15 22:28:00,27.0,-22.4,29.90,SW,225,0.0,0.0,1,0.00,,,0.00,WUHU216HW,2013-02-16 03:28:00,
2013-02-15 22:33:00,26.6,-22.7,29.90,SW,225,0.0,0.0,1,0.00,,,0.00,WUHU216HW,2013-02-16 03:33:00,
2013-02-15 22:38:00,26.3,-22.9,29.91,North,0,0.0,0.0,1,0.00,,,0.00,WUHU216HW,2013-02-16 03:38:00,
2013-02-15 22:43:00,26.6,-22.7,29.91,NNE,23,0.0,0.0,1,0.00,,,0.00,WUHU216HW,2013-02-16 03:43:00,
2013-02-15 22:48:00,26.8,-22.5,29.91,NNE,23,0.0,0.0,1,0.00,,,0.00,WUHU216HW,2013-02-16 03:48:00,
2013-02-15 22:53:00,26.8,-22.5,29.91,NNE,23,0.0,0.0,1,0.00,,,0.00,WUHU216HW,2013-02-16 03:53:00,
2013-02-15 22:58:00,26.6,-22.7,29.91,NNE,23,0.0,0.0,1,0.00,,,0.00,WUHU216HW,2013-02-16 03:58:00,
2013-02-15 23:03:00,26.5,-22.9,29.91,NNE,23,0.0,0.0,1,0.00,,,0.00,WUHU216HW,2013-02-16 04:03:00,
2013-02-15 23:08:00,26.8,-22.5,29.91,NNE,23,0.0,0.0,1,0.00,,,0.00,WUHU216HW,2013-02-16 04:08:00,
2013-02-15 23:13:00,27.0,-22.4,29.90,NNE,23,0.0,0.0,1,0.00,,,0.00,WUHU216HW,2013-02-16 04:13:00,
2013-02-15 23:18:00,27.0,-22.4,29.90,NNE,23,0.0,0.0,1,0.00,,,0.00,WUHU216HW,2013-02-16 04:18:00,
2013-02-15 23:23:00,27.0,-22.4,29.90,NNE,23,0.0,0.0,1,0.00,,,0.00,WUHU216HW,2013-02-16 04:23:00,
2013-02-15 23:28:00,26.8,-22.5,29.90,NNE,23,0.0,0.0,1,0.00,,,0.00,WUHU216HW,2013-02-16 04:28:00,
2013-02-15 23:33:00,26.6,-22.7,29.90,NNE,23,0.0,0.0,1,0.00,,,0.00,WUHU216HW,2013-02-16 04:33:00,
2013-02-15 23:39:00,26.5,-22.9,29.90,NNE,23,0.0,0.0,1,0.00,,,0.00,WUHU216HW,2013-02-16 04:39:00,
2013-02-15 23:44:00,26.3,-22.9,29.90,NNE,23,0.0,0.0,1,0.00,,,0.00,WUHU216HW,2013-02-16 04:44:00,
2013-02-15 23:49:00,26.1,-23.1,29.91,NNE,23,0.0,0.0,1,0.00,,,0.00,WUHU216HW,2013-02-16 04:49:00,
2013-02-15 23:54:00,26.1,-23.1,29.91,NNE,23,0.0,0.0,1,0.00,,,0.00,WUHU216HW,2013-02-16 04:54:00,
2013-02-15 23:59:00,26.1,-23.1,29.90,NNE,23,0.0,0.0,1,0.00,,,0.00,WUHU216HW,2013-02-16 04:59:00,